createdAt,value
2022-09-04T00:00:57.643Z,19.30
2022-09-04T00:03:33.204Z,19.30
2022-09-04T00:06:05.628Z,19.30
2022-09-04T00:08:40.296Z,19.20
2022-09-04T00:11:13.888Z,19.20
2022-09-04T00:13:44.551Z,19.20
2022-09-04T00:16:15.512Z,19.20
2022-09-04T00:18:47.388Z,19.20
2022-09-04T00:21:17.868Z,19.10
2022-09-04T00:23:49.455Z,19.20
2022-09-04T00:26:22.273Z,19.10
2022-09-04T00:28:52.250Z,19.10
2022-09-04T00:31:25.904Z,19.10
2022-09-04T00:33:58.901Z,19.10
2022-09-04T00:36:28.382Z,19.00
2022-09-04T00:38:57.763Z,19.10
2022-09-04T00:41:28.385Z,19.00
2022-09-04T00:44:08.749Z,19.00
2022-09-04T00:46:53.277Z,19.00
2022-09-04T00:49:28.152Z,18.90
2022-09-04T00:51:59.860Z,18.80
2022-09-04T00:54:45.351Z,18.70
2022-09-04T00:57:26.539Z,18.70
2022-09-04T01:00:04.757Z,18.80
2022-09-04T01:02:36.709Z,18.80
2022-09-04T01:05:24.622Z,18.80
2022-09-04T01:07:58.812Z,18.80
2022-09-04T01:10:35.489Z,18.80
2022-09-04T01:13:08.050Z,18.80
2022-09-04T01:15:41.382Z,18.80
2022-09-04T01:18:11.068Z,18.80
2022-09-04T01:20:52.196Z,18.70
2022-09-04T01:23:25.551Z,18.70
2022-09-04T01:26:01.340Z,18.70
2022-09-04T01:28:33.530Z,18.70
2022-09-04T01:31:05.270Z,18.60
2022-09-04T01:33:37.327Z,18.60
2022-09-04T01:36:07.042Z,18.50
2022-09-04T01:38:38.818Z,18.50
2022-09-04T01:41:14.437Z,18.50
2022-09-04T01:43:42.412Z,18.40
2022-09-04T01:46:25.475Z,18.50
2022-09-04T01:48:55.584Z,18.50
2022-09-04T01:51:27.095Z,18.50
2022-09-04T01:54:01.939Z,18.50
2022-09-04T01:56:35.266Z,18.50
2022-09-04T01:59:06.426Z,18.50
2022-09-04T02:01:39.357Z,18.40
2022-09-04T02:04:18.314Z,18.40
2022-09-04T02:06:51.692Z,18.40
2022-09-04T02:09:23.556Z,18.30
2022-09-04T02:11:58.005Z,18.30
2022-09-04T02:14:32.551Z,18.30
2022-09-04T02:17:08.058Z,18.30
2022-09-04T02:19:38.324Z,18.30
2022-09-04T02:22:21.954Z,18.20
2022-09-04T02:24:52.280Z,18.30
2022-09-04T02:27:27.338Z,18.20
2022-09-04T02:29:58.525Z,18.20
2022-09-04T02:32:31.296Z,18.20
2022-09-04T02:35:02.821Z,18.00
2022-09-04T02:37:33.569Z,18.00
2022-09-04T02:40:04.691Z,18.00
2022-09-04T02:42:39.948Z,18.00
2022-09-04T02:45:16.859Z,18.00
2022-09-04T02:47:48.199Z,18.00
2022-09-04T02:50:22.096Z,18.00
2022-09-04T02:52:56.917Z,18.00
2022-09-04T02:55:31.747Z,18.00
2022-09-04T02:58:08.837Z,18.00
2022-09-04T03:00:41.487Z,17.90
2022-09-04T03:03:12.307Z,17.90
2022-09-04T03:05:43.000Z,17.90
2022-09-04T03:08:15.177Z,17.80
2022-09-04T03:10:45.118Z,17.80
2022-09-04T03:13:19.417Z,17.80
2022-09-04T03:15:51.457Z,17.80
2022-09-04T03:18:22.826Z,17.70
2022-09-04T03:20:54.038Z,17.70
2022-09-04T03:23:22.751Z,17.60
2022-09-04T03:26:01.771Z,17.60
2022-09-04T03:28:36.951Z,17.60
2022-09-04T03:31:11.783Z,17.70
2022-09-04T03:33:41.062Z,17.60
2022-09-04T03:36:14.267Z,17.60
2022-09-04T03:38:47.524Z,17.60
2022-09-04T03:41:19.201Z,17.60
2022-09-04T03:43:56.018Z,17.60
2022-09-04T03:46:28.858Z,17.60
2022-09-04T03:49:05.641Z,17.50
2022-09-04T03:51:39.970Z,17.50
2022-09-04T03:54:12.182Z,17.60
2022-09-04T03:56:48.031Z,17.60
2022-09-04T03:59:25.268Z,17.50
2022-09-04T04:01:57.732Z,17.60
2022-09-04T04:04:44.120Z,17.70
2022-09-04T04:07:19.052Z,17.70
2022-09-04T04:09:55.718Z,17.70
2022-09-04T04:12:39.343Z,17.70
2022-09-04T04:15:12.695Z,17.70
2022-09-04T04:17:50.005Z,17.70
2022-09-04T04:20:22.970Z,17.70
2022-09-04T04:23:17.732Z,17.70
2022-09-04T04:25:52.454Z,17.70
2022-09-04T04:28:30.930Z,17.70
2022-09-04T04:31:05.993Z,17.60
2022-09-04T04:33:42.132Z,17.60
2022-09-04T04:36:17.648Z,17.60
2022-09-04T04:38:53.405Z,17.60
2022-09-04T04:41:30.788Z,17.60
2022-09-04T04:44:06.041Z,17.60
2022-09-04T04:46:41.054Z,17.60
2022-09-04T04:49:28.542Z,17.60
2022-09-04T04:52:15.889Z,17.60
2022-09-04T04:54:51.472Z,17.60
2022-09-04T04:57:25.536Z,17.50
2022-09-04T04:59:58.313Z,17.50
2022-09-04T05:02:31.106Z,17.50
2022-09-04T05:05:03.347Z,17.50
2022-09-04T05:07:35.906Z,17.50
2022-09-04T05:10:09.380Z,17.50
2022-09-04T05:12:47.035Z,17.50
2022-09-04T05:15:19.351Z,17.50
2022-09-04T05:17:52.046Z,17.50
2022-09-04T05:20:24.832Z,17.50
2022-09-04T05:22:57.728Z,17.50
2022-09-04T05:25:28.568Z,17.60
2022-09-04T05:28:05.327Z,17.60
2022-09-04T05:30:38.870Z,17.70
2022-09-04T05:33:12.161Z,17.70
2022-09-04T05:35:43.875Z,17.80
2022-09-04T05:38:15.095Z,17.80
2022-09-04T05:40:50.825Z,17.90
2022-09-04T05:43:24.466Z,17.90
2022-09-04T05:45:59.164Z,18.00
2022-09-04T05:48:31.324Z,18.00
2022-09-04T05:51:06.742Z,18.00
2022-09-04T05:53:44.394Z,18.10
2022-09-04T05:56:30.179Z,18.20
2022-09-04T05:59:08.573Z,18.10
2022-09-04T06:01:53.271Z,18.20
2022-09-04T06:04:36.658Z,18.30
2022-09-04T06:07:10.546Z,18.30
2022-09-04T06:09:51.007Z,18.40
2022-09-04T06:12:24.559Z,18.50
2022-09-04T06:14:58.805Z,18.60
2022-09-04T06:17:38.080Z,18.70
2022-09-04T06:20:21.051Z,18.80
2022-09-04T06:22:57.651Z,18.90
2022-09-04T06:25:43.898Z,19.00
2022-09-04T06:28:21.658Z,19.20
2022-09-04T06:30:51.389Z,19.40
2022-09-04T06:33:27.469Z,19.50
2022-09-04T06:36:13.179Z,19.60
2022-09-04T06:38:49.797Z,19.60
2022-09-04T06:41:35.590Z,19.80
2022-09-04T06:44:07.788Z,20.00
2022-09-04T06:46:39.524Z,20.20
2022-09-04T06:49:09.695Z,20.40
2022-09-04T06:51:46.290Z,20.50
2022-09-04T06:54:24.303Z,20.50
2022-09-04T06:57:10.352Z,20.70
2022-09-04T06:59:45.845Z,20.70
2022-09-04T07:02:19.451Z,20.80
2022-09-04T07:04:53.570Z,21.00
2022-09-04T07:07:26.249Z,21.40
2022-09-04T07:10:01.310Z,21.50
2022-09-04T07:12:59.487Z,21.60
2022-09-04T07:15:43.808Z,21.80
2022-09-04T07:18:17.927Z,22.10
2022-09-04T07:20:52.716Z,22.60
2022-09-04T07:23:28.699Z,22.90
2022-09-04T07:26:06.335Z,23.00
2022-09-04T07:28:39.517Z,23.10
2022-09-04T07:31:11.127Z,23.50
2022-09-04T07:33:43.090Z,23.80
2022-09-04T07:36:16.733Z,24.00
2022-09-04T07:38:50.805Z,24.20
2022-09-04T07:41:24.520Z,24.50
2022-09-04T07:43:57.011Z,24.10
2022-09-04T07:46:33.524Z,24.40
2022-09-04T07:49:10.125Z,24.50
2022-09-04T07:51:42.640Z,24.60
2022-09-04T07:54:22.963Z,24.90
2022-09-04T07:57:01.174Z,25.30
2022-09-04T07:59:36.114Z,25.90
2022-09-04T08:02:10.696Z,26.00
2022-09-04T08:04:47.124Z,26.20
2022-09-04T08:07:20.943Z,26.30
2022-09-04T08:10:05.730Z,26.50
2022-09-04T08:12:44.929Z,26.60
2022-09-04T08:15:19.847Z,26.80
2022-09-04T08:18:01.554Z,27.00
2022-09-04T08:20:36.661Z,26.90
2022-09-04T08:23:13.560Z,27.00
2022-09-04T08:25:48.467Z,27.00
2022-09-04T08:28:24.538Z,27.40
2022-09-04T08:30:55.979Z,27.10
2022-09-04T08:33:39.215Z,26.90
2022-09-04T08:36:12.323Z,27.40
2022-09-04T08:38:51.527Z,27.70
2022-09-04T08:41:29.907Z,27.90
2022-09-04T08:44:12.400Z,28.00
2022-09-04T08:47:01.890Z,28.30
2022-09-04T08:49:55.178Z,28.00
2022-09-04T08:52:29.116Z,28.20
2022-09-04T08:55:21.882Z,28.90
2022-09-04T08:58:08.940Z,29.10
2022-09-04T09:00:42.932Z,28.90
2022-09-04T09:03:23.757Z,29.20
2022-09-04T09:06:09.488Z,29.90
2022-09-04T09:08:55.816Z,29.30
2022-09-04T09:11:32.729Z,29.60
2022-09-04T09:14:18.516Z,29.90
2022-09-04T09:16:54.260Z,29.70
2022-09-04T09:19:29.576Z,30.00
2022-09-04T09:22:09.004Z,30.40
2022-09-04T09:25:00.662Z,30.80
2022-09-04T09:27:43.711Z,31.00
2022-09-04T09:30:12.693Z,30.60
2022-09-04T09:33:04.525Z,30.90
2022-09-04T09:35:55.685Z,31.20
2022-09-04T09:38:38.926Z,31.20
2022-09-04T09:41:17.780Z,30.80
2022-09-04T09:43:58.884Z,31.20
2022-09-04T09:46:40.714Z,30.90
2022-09-04T09:49:32.613Z,30.80
2022-09-04T09:52:15.271Z,31.30
2022-09-04T09:55:01.811Z,31.60
2022-09-04T09:57:50.705Z,31.70
2022-09-04T10:00:21.310Z,32.10
2022-09-04T10:03:10.095Z,31.10
2022-09-04T10:05:51.694Z,31.60
2022-09-04T10:08:36.965Z,32.50
2022-09-04T10:11:23.794Z,32.30
2022-09-04T10:13:56.927Z,32.30
2022-09-04T10:16:39.719Z,31.90
2022-09-04T10:19:16.539Z,31.20
2022-09-04T10:22:00.133Z,31.30
2022-09-04T10:24:49.706Z,31.20
2022-09-04T10:27:34.381Z,31.50
2022-09-04T10:30:06.652Z,31.40
2022-09-04T10:32:56.394Z,31.50
2022-09-04T10:35:27.816Z,32.10
2022-09-04T10:38:06.470Z,31.70
2022-09-04T10:40:44.595Z,32.00
2022-09-04T10:43:20.892Z,31.90
2022-09-04T10:45:53.434Z,32.40
2022-09-04T10:48:45.150Z,32.80
2022-09-04T10:51:25.438Z,33.20
2022-09-04T10:54:08.168Z,32.60
2022-09-04T10:56:38.840Z,32.30
2022-09-04T10:59:13.101Z,32.10
2022-09-04T11:01:56.428Z,32.10
2022-09-04T11:04:35.131Z,32.60
2022-09-04T11:07:19.051Z,33.20
2022-09-04T11:09:54.056Z,33.20
2022-09-04T11:12:33.587Z,33.10
2022-09-04T11:15:26.147Z,33.80
2022-09-04T11:18:19.301Z,33.60
2022-09-04T11:21:17.274Z,32.50
2022-09-04T11:24:03.062Z,33.20
2022-09-04T11:26:47.357Z,34.00
2022-09-04T11:29:48.322Z,32.80
2022-09-04T11:32:27.344Z,33.80
2022-09-04T11:35:14.201Z,33.40
2022-09-04T11:38:03.279Z,33.10
2022-09-04T11:40:45.976Z,33.70
2022-09-04T11:43:27.878Z,34.10
2022-09-04T11:46:07.772Z,34.10
2022-09-04T11:48:53.802Z,33.90
2022-09-04T11:51:40.968Z,33.30
2022-09-04T11:54:36.062Z,33.80
2022-09-04T11:57:12.453Z,33.80
2022-09-04T12:00:12.206Z,34.30
2022-09-04T12:02:51.723Z,34.30
2022-09-04T12:05:39.578Z,34.40
2022-09-04T12:08:17.467Z,35.20
2022-09-04T12:10:53.513Z,34.60
2022-09-04T12:13:40.158Z,35.10
2022-09-04T12:16:27.623Z,33.70
2022-09-04T12:19:08.502Z,34.80
2022-09-04T12:21:55.128Z,34.00
2022-09-04T12:24:47.200Z,34.10
2022-09-04T12:27:31.212Z,34.60
2022-09-04T12:30:11.261Z,34.80
2022-09-04T12:33:07.600Z,34.70
2022-09-04T12:35:43.921Z,34.90
2022-09-04T12:38:24.936Z,34.30
2022-09-04T12:40:58.441Z,34.10
2022-09-04T12:43:33.624Z,34.00
2022-09-04T12:46:12.685Z,34.20
2022-09-04T12:48:44.770Z,34.40
2022-09-04T12:51:14.143Z,34.10
2022-09-04T12:53:52.794Z,34.70
2022-09-04T12:56:26.311Z,35.00
2022-09-04T12:59:06.881Z,35.20
2022-09-04T13:01:51.099Z,34.70
2022-09-04T13:04:21.984Z,34.20
2022-09-04T13:07:07.119Z,33.90
2022-09-04T13:09:53.454Z,33.80
2022-09-04T13:12:26.666Z,34.00
2022-09-04T13:15:04.286Z,33.70
2022-09-04T13:17:34.955Z,33.70
2022-09-04T13:20:09.164Z,33.50
2022-09-04T13:22:53.841Z,33.90
2022-09-04T13:25:29.679Z,33.70
2022-09-04T13:28:03.223Z,33.40
2022-09-04T13:30:34.393Z,33.20
2022-09-04T13:33:11.172Z,33.30
2022-09-04T13:35:51.735Z,32.70
2022-09-04T13:38:33.483Z,33.00
2022-09-04T13:41:12.675Z,32.10
2022-09-04T13:43:56.015Z,32.50
2022-09-04T13:46:30.133Z,32.70
2022-09-04T13:49:01.006Z,32.70
2022-09-04T13:51:31.001Z,32.50
2022-09-04T13:54:05.226Z,33.00
2022-09-04T13:56:35.328Z,33.40
2022-09-04T13:59:08.504Z,33.10
2022-09-04T14:01:46.260Z,32.60
2022-09-04T14:04:17.411Z,32.30
2022-09-04T14:06:45.943Z,32.40
2022-09-04T14:09:13.832Z,33.30
2022-09-04T14:11:57.992Z,32.40
2022-09-04T14:15:00.150Z,32.80
2022-09-04T14:17:33.843Z,33.20
2022-09-04T14:20:04.368Z,33.20
2022-09-04T14:22:39.573Z,32.70
2022-09-04T14:25:12.062Z,33.00
2022-09-04T14:27:43.713Z,33.10
2022-09-04T14:30:14.964Z,33.30
2022-09-04T14:32:58.009Z,33.40
2022-09-04T14:35:31.060Z,33.60
2022-09-04T14:38:07.946Z,33.50
2022-09-04T14:40:38.190Z,33.90
2022-09-04T14:43:10.760Z,34.20
2022-09-04T14:46:06.407Z,34.10
2022-09-04T14:48:40.561Z,33.90
2022-09-04T14:51:15.203Z,34.00
2022-09-04T14:53:47.320Z,33.90
2022-09-04T14:56:22.665Z,33.70
2022-09-04T14:58:52.408Z,34.00
2022-09-04T15:01:21.096Z,34.00
2022-09-04T15:03:55.391Z,33.80
2022-09-04T15:06:32.418Z,34.20
2022-09-04T15:09:19.705Z,33.90
2022-09-04T15:11:48.517Z,33.60
2022-09-04T15:14:28.486Z,33.70
2022-09-04T15:17:00.165Z,34.00
2022-09-04T15:19:33.292Z,34.10
2022-09-04T15:22:03.362Z,33.80
2022-09-04T15:24:34.906Z,33.50
2022-09-04T15:27:06.693Z,33.40
2022-09-04T15:29:38.234Z,33.10
2022-09-04T15:32:13.920Z,32.80
2022-09-04T15:34:43.638Z,33.60
2022-09-04T15:37:12.738Z,33.80
2022-09-04T15:39:45.609Z,33.00
2022-09-04T15:42:14.400Z,32.70
2022-09-04T15:44:44.633Z,32.40
2022-09-04T15:47:17.103Z,32.50
2022-09-04T15:49:48.267Z,32.50
2022-09-04T15:52:30.808Z,32.30
2022-09-04T15:55:01.923Z,32.50
2022-09-04T15:57:36.082Z,32.40
2022-09-04T16:00:09.175Z,32.50
2022-09-04T16:02:40.564Z,32.00
2022-09-04T16:05:19.515Z,31.70
2022-09-04T16:08:03.143Z,31.80
2022-09-04T16:10:40.770Z,32.30
2022-09-04T16:13:29.065Z,32.50
2022-09-04T16:16:04.021Z,32.50
2022-09-04T16:18:40.254Z,32.60
2022-09-04T16:21:15.599Z,32.40
2022-09-04T16:23:44.202Z,32.00
2022-09-04T16:26:13.604Z,31.60
2022-09-04T16:28:46.498Z,31.30
2022-09-04T16:31:15.423Z,31.40
2022-09-04T16:33:47.116Z,31.60
2022-09-04T16:36:20.955Z,31.70
2022-09-04T16:38:52.408Z,31.70
2022-09-04T16:41:25.521Z,31.70
2022-09-04T16:44:11.823Z,31.90
2022-09-04T16:46:40.865Z,31.40
2022-09-04T16:49:10.980Z,31.30
2022-09-04T16:51:44.016Z,31.10
2022-09-04T16:54:13.459Z,31.20
2022-09-04T16:56:43.575Z,30.80
2022-09-04T16:59:23.483Z,30.80
2022-09-04T17:01:55.526Z,30.60
2022-09-04T17:04:27.845Z,30.60
2022-09-04T17:07:03.226Z,30.40
2022-09-04T17:09:35.272Z,30.40
2022-09-04T17:12:07.360Z,30.20
2022-09-04T17:14:37.355Z,30.20
2022-09-04T17:17:08.903Z,30.20
2022-09-04T17:20:01.403Z,30.20
2022-09-04T17:29:01.443Z,29.80
2022-09-04T17:29:04.886Z,30.10
2022-09-04T17:29:24.638Z,29.70
2022-09-04T17:31:20.550Z,29.60
2022-09-04T17:40:01.790Z,29.40
2022-09-04T17:40:37.323Z,29.40
2022-09-04T17:40:55.519Z,29.20
2022-09-04T17:42:28.121Z,29.10
2022-09-04T17:45:00.176Z,29.00
2022-09-04T17:47:30.088Z,28.80
2022-09-04T17:49:58.605Z,28.60
2022-09-04T17:52:28.318Z,28.50
2022-09-04T17:55:00.211Z,28.40
2022-09-04T17:57:32.337Z,28.20
2022-09-04T18:00:03.359Z,28.00
2022-09-04T18:02:35.756Z,27.90
2022-09-04T18:05:11.541Z,27.80
2022-09-04T18:08:09.423Z,27.60
2022-09-04T18:10:34.128Z,27.50
2022-09-04T18:13:36.415Z,27.30
2022-09-04T18:16:02.442Z,27.20
2022-09-04T18:18:38.278Z,27.10
2022-09-04T18:21:10.206Z,27.00
2022-09-04T18:23:52.923Z,26.80
2022-09-04T18:26:27.909Z,26.60
2022-09-04T18:31:59.202Z,26.50
2022-09-04T18:37:06.241Z,26.30
2022-09-04T18:37:21.166Z,26.20
2022-09-04T18:37:50.721Z,26.00
2022-09-04T18:40:39.214Z,25.80
2022-09-04T18:50:25.371Z,25.60
2022-09-04T18:50:48.582Z,25.50
2022-09-04T18:50:50.078Z,25.40
2022-09-04T18:51:52.482Z,25.30
2022-09-04T18:54:23.556Z,25.10
2022-09-04T18:56:54.111Z,25.00
2022-09-04T18:59:26.133Z,24.80
2022-09-04T19:02:00.924Z,24.80
2022-09-04T19:04:46.934Z,24.80
2022-09-04T19:07:23.122Z,24.60
2022-09-04T19:10:15.118Z,24.50
2022-09-04T19:12:47.077Z,24.40
2022-09-04T19:15:27.474Z,24.20
2022-09-04T19:18:06.049Z,24.20
2022-09-04T19:20:44.380Z,24.20
2022-09-04T19:23:16.039Z,24.20
2022-09-04T19:25:54.759Z,24.10
2022-09-04T19:28:24.750Z,24.00
2022-09-04T19:30:55.777Z,24.00
2022-09-04T19:33:31.760Z,23.90
2022-09-04T19:36:02.005Z,23.70
2022-09-04T19:43:12.962Z,23.50
2022-09-04T19:46:06.658Z,23.50
2022-09-04T19:46:09.470Z,23.40
2022-09-04T19:47:28.760Z,23.40
2022-09-04T19:53:17.802Z,23.30
2022-09-04T19:53:31.647Z,23.20
2022-09-04T19:55:41.692Z,23.20
2022-09-04T19:58:10.265Z,23.10
2022-09-04T20:00:44.503Z,23.00
2022-09-04T20:03:30.302Z,22.80
2022-09-04T20:06:07.654Z,22.80
2022-09-04T20:08:52.822Z,22.70
2022-09-04T20:11:35.126Z,22.60
2022-09-04T20:14:14.422Z,22.50
2022-09-04T20:16:49.055Z,22.40
2022-09-04T20:19:27.528Z,22.30
2022-09-04T20:21:57.757Z,22.20
2022-09-04T20:24:26.980Z,22.20
2022-09-04T20:26:57.640Z,22.10
2022-09-04T20:29:27.912Z,22.10
2022-09-04T20:31:57.649Z,22.10
2022-09-04T20:34:30.527Z,22.10
2022-09-04T20:37:03.311Z,22.00
2022-09-04T20:39:36.036Z,21.90
2022-09-04T20:42:05.968Z,21.80
2022-09-04T20:44:47.608Z,21.70
2022-09-04T20:52:54.578Z,21.60
2022-09-04T20:53:00.199Z,21.60
2022-09-04T20:53:23.808Z,21.60
2022-09-04T20:56:01.782Z,21.60
2022-09-04T21:02:09.339Z,21.50
2022-09-04T21:03:19.606Z,21.40
2022-09-04T21:04:41.975Z,21.30
2022-09-04T21:07:19.580Z,21.30
2022-09-04T21:09:55.399Z,21.20
2022-09-04T21:12:29.658Z,21.10
2022-09-04T21:15:00.592Z,21.10
2022-09-04T21:17:46.909Z,21.10
2022-09-04T21:20:24.371Z,21.00
2022-09-04T21:23:05.481Z,20.90
2022-09-04T21:25:37.330Z,20.80
2022-09-04T21:28:17.906Z,20.70
2022-09-04T21:31:03.039Z,20.60
2022-09-04T21:33:36.506Z,20.60
2022-09-04T21:36:26.838Z,20.50
2022-09-04T21:39:10.616Z,20.40
2022-09-04T21:41:45.015Z,20.40
2022-09-04T21:44:21.377Z,20.40
2022-09-04T21:46:57.720Z,20.20
2022-09-04T21:49:32.731Z,20.10
2022-09-04T21:52:12.430Z,20.10
2022-09-04T21:58:56.805Z,20.00
2022-09-04T22:02:41.530Z,20.00
2022-09-04T22:02:44.605Z,20.00
2022-09-04T22:03:45.663Z,20.00
2022-09-04T22:06:23.059Z,20.00
2022-09-04T22:13:32.067Z,19.90
2022-09-04T22:13:37.243Z,19.90
2022-09-04T22:14:55.091Z,19.80
2022-09-04T22:17:41.934Z,19.80
2022-09-04T22:20:20.569Z,19.70
2022-09-04T22:23:05.743Z,19.70
2022-09-04T22:25:39.408Z,19.70
2022-09-04T22:28:27.916Z,19.60
2022-09-04T22:31:10.827Z,19.50
2022-09-04T22:34:15.955Z,19.50
2022-09-04T22:37:00.711Z,19.40
2022-09-04T22:39:40.160Z,19.40
2022-09-04T22:42:23.316Z,19.40
2022-09-04T22:45:09.927Z,19.30
2022-09-04T22:47:48.329Z,19.20
2022-09-04T22:50:50.766Z,19.00
2022-09-04T22:53:29.589Z,18.80
2022-09-04T22:56:24.873Z,18.90
2022-09-04T22:59:20.371Z,18.90
2022-09-04T23:02:13.529Z,18.90
2022-09-04T23:05:03.233Z,18.90
2022-09-04T23:13:53.063Z,18.50
2022-09-04T23:13:54.634Z,18.40
2022-09-04T23:14:02.408Z,18.40
2022-09-04T23:16:38.827Z,18.40
2022-09-04T23:26:37.748Z,18.40
2022-09-04T23:26:37.993Z,18.40
2022-09-04T23:26:44.480Z,18.40
2022-09-04T23:28:28.295Z,18.40
2022-09-04T23:31:07.057Z,18.40
2022-09-04T23:33:58.236Z,18.40
2022-09-04T23:36:38.070Z,18.40
2022-09-04T23:39:17.464Z,18.40
2022-09-04T23:41:53.003Z,18.30
2022-09-04T23:44:34.351Z,18.30
2022-09-04T23:47:09.364Z,18.30
2022-09-04T23:50:02.147Z,18.20
2022-09-04T23:52:48.582Z,18.20
2022-09-04T23:55:24.905Z,18.10
2022-09-04T23:57:59.759Z,18.00
